createdAt,value
2022-08-18T00:05:00.633Z,31.60
2022-08-18T00:10:07.473Z,31.63
2022-08-18T00:15:14.902Z,31.68
2022-08-18T00:20:21.896Z,31.75
2022-08-18T00:25:29.211Z,31.86
2022-08-18T00:30:36.504Z,31.91
2022-08-18T00:35:46.182Z,32.00
2022-08-18T00:40:52.417Z,32.04
2022-08-18T00:45:57.153Z,32.14
2022-08-18T00:51:05.455Z,32.25
2022-08-18T00:56:13.724Z,32.29
2022-08-18T01:01:22.275Z,32.39
2022-08-18T01:06:27.461Z,32.43
2022-08-18T01:11:33.532Z,32.51
2022-08-18T01:16:40.493Z,32.51
2022-08-18T01:21:47.700Z,32.56
2022-08-18T01:26:54.226Z,32.62
2022-08-18T01:32:01.984Z,32.63
2022-08-18T01:37:08.641Z,32.62
2022-08-18T01:42:15.588Z,32.59
2022-08-18T01:47:24.231Z,32.57
2022-08-18T01:52:31.070Z,32.49
2022-08-18T01:57:38.066Z,32.45
2022-08-18T02:02:43.985Z,32.44
2022-08-18T02:12:59.864Z,32.42
2022-08-18T02:18:05.333Z,32.40
2022-08-18T02:23:12.687Z,32.38
2022-08-18T02:28:19.467Z,32.42
2022-08-18T02:33:27.167Z,32.46
2022-08-18T02:38:35.250Z,32.45
2022-08-18T02:43:42.099Z,32.44
2022-08-18T02:48:47.913Z,32.43
2022-08-18T02:53:58.174Z,32.43
2022-08-18T02:59:02.081Z,32.45
2022-08-18T03:04:09.369Z,32.48
2022-08-18T03:09:16.911Z,32.53
2022-08-18T03:14:23.790Z,32.60
2022-08-18T03:19:32.326Z,32.66
2022-08-18T03:24:38.020Z,32.73
2022-08-18T03:29:44.979Z,32.75
2022-08-18T03:34:52.026Z,32.77
2022-08-18T03:39:59.434Z,32.82
2022-08-18T03:45:13.232Z,32.86
2022-08-18T03:50:13.904Z,32.88
2022-08-18T03:55:20.716Z,32.89
2022-08-18T04:00:27.559Z,32.95
2022-08-18T04:05:34.966Z,32.96
2022-08-18T04:10:41.762Z,32.99
2022-08-18T04:15:49.242Z,33.06
2022-08-18T04:20:59.953Z,33.08
2022-08-18T04:26:03.307Z,33.04
2022-08-18T04:31:10.415Z,32.98
2022-08-18T04:36:20.676Z,32.95
2022-08-18T04:41:24.428Z,32.86
2022-08-18T04:46:31.729Z,32.74
2022-08-18T04:52:22.559Z,32.62
2022-08-18T04:56:46.216Z,32.50
2022-08-18T05:01:53.044Z,32.36
2022-08-18T05:06:59.843Z,32.25
2022-08-18T05:12:07.133Z,32.04
2022-08-18T05:17:14.676Z,31.75
2022-08-18T05:22:26.255Z,31.55
2022-08-18T05:27:28.305Z,31.46
2022-08-18T05:32:47.928Z,31.41
2022-08-18T05:37:42.459Z,31.43
2022-08-18T05:42:49.809Z,31.39
2022-08-18T05:47:57.180Z,31.30
2022-08-18T05:53:05.578Z,31.16
2022-08-18T05:58:10.891Z,30.92
2022-08-18T06:03:19.375Z,30.69
2022-08-18T06:08:25.772Z,30.40
2022-08-18T06:13:32.632Z,30.09
2022-08-18T06:23:46.884Z,28.43
2022-08-18T06:28:54.751Z,27.41
2022-08-18T06:34:01.278Z,26.55
2022-08-18T06:39:08.188Z,25.72
2022-08-18T06:44:15.554Z,25.14
2022-08-18T06:49:22.251Z,25.00
2022-08-18T06:54:29.703Z,25.28
2022-08-18T06:59:36.511Z,25.57
2022-08-18T07:04:44.057Z,25.77
2022-08-18T07:09:50.946Z,25.94
2022-08-18T07:14:58.480Z,26.04
2022-08-18T07:20:05.397Z,26.10
2022-08-18T07:25:12.381Z,26.02
2022-08-18T07:30:19.177Z,25.93
2022-08-18T07:35:26.506Z,25.80
2022-08-18T07:40:33.928Z,25.58
2022-08-18T07:45:40.730Z,25.50
2022-08-18T07:50:58.869Z,25.34
2022-08-18T07:55:55.105Z,25.20
2022-08-18T08:01:02.132Z,25.02
2022-08-18T08:06:09.218Z,24.93
2022-08-18T08:11:16.729Z,24.90
2022-08-18T08:16:23.590Z,24.82
2022-08-18T08:21:32.096Z,24.59
2022-08-18T08:26:38.360Z,24.37
2022-08-18T08:31:44.994Z,24.14
2022-08-18T08:36:52.362Z,23.96
2022-08-18T08:42:29.183Z,23.82
2022-08-18T08:52:28.249Z,23.54
2022-08-18T08:57:20.684Z,23.37
2022-08-18T09:02:46.205Z,23.11
2022-08-18T09:07:38.050Z,22.81
2022-08-18T09:12:42.376Z,22.35
2022-08-18T09:17:49.223Z,21.87
2022-08-18T09:22:56.578Z,21.25
2022-08-18T09:28:11.586Z,20.64
2022-08-18T09:33:18.493Z,20.23
2022-08-18T09:43:25.185Z,18.39
2022-08-18T09:48:32.333Z,17.98
2022-08-18T09:53:41.711Z,17.70
2022-08-18T09:58:46.257Z,17.71
2022-08-18T10:03:53.797Z,17.53
2022-08-18T10:09:00.767Z,17.12
2022-08-18T10:14:09.641Z,16.76
2022-08-18T10:19:15.525Z,16.33
2022-08-18T10:29:30.592Z,15.47
2022-08-18T10:34:37.495Z,15.88
2022-08-18T10:39:43.896Z,16.49
2022-08-18T10:44:52.385Z,16.79
2022-08-18T10:49:57.876Z,16.90
2022-08-18T10:55:10.297Z,16.40
2022-08-18T11:00:12.654Z,15.48
2022-08-18T11:05:19.863Z,14.57
2022-08-18T11:10:29.716Z,13.98
2022-08-18T11:15:38.803Z,13.52
2022-08-18T11:25:48.548Z,13.01
2022-08-18T11:30:56.758Z,13.13
2022-08-18T11:36:03.595Z,12.79
2022-08-18T11:46:19.155Z,12.23
2022-08-18T11:51:24.932Z,12.08
2022-08-18T11:56:37.656Z,11.91
2022-08-18T12:01:42.199Z,11.77
2022-08-18T12:06:47.126Z,11.84
2022-08-18T12:11:53.072Z,11.86
2022-08-18T12:17:00.031Z,11.75
2022-08-18T12:22:11.995Z,12.11
2022-08-18T12:27:21.278Z,12.81
2022-08-18T12:32:47.149Z,13.36
2022-08-18T12:37:58.106Z,13.03
2022-08-18T12:42:36.052Z,12.61
2022-08-18T12:47:43.032Z,12.29
2022-08-18T12:52:50.553Z,12.46
2022-08-18T12:57:57.952Z,12.32
2022-08-18T13:03:05.986Z,12.09
2022-08-18T13:08:12.646Z,11.92
2022-08-18T13:13:19.006Z,11.94
2022-08-18T13:18:29.120Z,12.14
2022-08-18T13:23:34.012Z,12.44
2022-08-18T13:28:49.833Z,12.75
2022-08-18T13:33:57.978Z,13.24
2022-08-18T13:38:55.195Z,13.87
2022-08-18T13:44:02.318Z,14.55
2022-08-18T13:49:10.792Z,14.70
2022-08-18T13:54:29.651Z,14.65
2022-08-18T13:59:23.875Z,14.70
2022-08-18T14:04:30.941Z,15.13
2022-08-18T14:09:38.361Z,15.88
2022-08-18T14:14:46.389Z,16.49
2022-08-18T14:19:52.665Z,17.02
2022-08-18T14:24:59.644Z,17.37
2022-08-18T14:30:06.573Z,17.38
2022-08-18T14:35:34.305Z,17.48
2022-08-18T14:40:22.208Z,17.74
2022-08-18T14:45:35.245Z,18.04
2022-08-18T14:50:37.117Z,18.33
2022-08-18T14:55:42.827Z,18.52
2022-08-18T15:00:53.582Z,18.80
2022-08-18T15:05:57.074Z,19.48
2022-08-18T15:11:04.034Z,20.34
2022-08-18T15:16:12.139Z,21.14
2022-08-18T15:21:19.407Z,21.91
2022-08-18T15:26:27.332Z,22.63
2022-08-18T15:31:50.088Z,23.10
2022-08-18T15:36:40.109Z,23.38
2022-08-18T15:41:47.267Z,23.65
2022-08-18T15:46:55.681Z,23.76
2022-08-18T15:52:01.859Z,23.80
2022-08-18T15:57:08.753Z,23.79
2022-08-18T16:02:16.940Z,23.83
2022-08-18T16:07:25.100Z,23.83
2022-08-18T16:12:29.772Z,23.95
2022-08-18T16:17:37.270Z,23.98
2022-08-18T16:22:45.771Z,24.05
2022-08-18T16:27:51.969Z,24.08
2022-08-18T16:32:58.337Z,24.27
2022-08-18T16:38:05.821Z,24.69
2022-08-18T16:43:14.248Z,25.32
2022-08-18T16:48:19.868Z,25.95
2022-08-18T16:53:27.501Z,26.47
2022-08-18T16:58:34.001Z,26.98
2022-08-18T17:03:41.484Z,27.53
2022-08-18T17:08:48.513Z,28.07
2022-08-18T17:13:57.038Z,28.60
2022-08-18T17:19:03.265Z,29.55
2022-08-18T17:24:11.522Z,30.63
2022-08-18T17:29:18.295Z,31.75
2022-08-18T17:34:24.244Z,32.65
2022-08-18T17:39:32.327Z,33.40
2022-08-18T17:44:38.943Z,33.84
2022-08-18T17:49:45.669Z,34.19
2022-08-18T17:54:52.724Z,34.35
2022-08-18T17:59:59.631Z,34.44
2022-08-18T18:05:07.677Z,34.44
2022-08-18T18:10:15.593Z,34.52
2022-08-18T18:15:21.076Z,34.59
2022-08-18T18:20:28.047Z,34.67
2022-08-18T18:25:35.789Z,34.74
2022-08-18T18:30:42.752Z,34.85
2022-08-18T18:35:53.401Z,35.02
2022-08-18T18:40:56.640Z,35.12
2022-08-18T18:46:04.124Z,35.29
2022-08-18T18:51:13.132Z,35.37
2022-08-18T18:56:18.134Z,35.49
2022-08-18T19:01:26.610Z,35.66
2022-08-18T19:06:32.567Z,35.81
2022-08-18T19:11:39.493Z,36.03
2022-08-18T19:16:46.510Z,36.19
2022-08-18T19:22:03.889Z,36.33
2022-08-18T19:27:01.011Z,36.51
2022-08-18T19:32:08.046Z,36.54
2022-08-18T19:37:15.037Z,36.45
2022-08-18T19:42:22.042Z,36.39
2022-08-18T19:47:29.486Z,36.35
2022-08-18T19:52:45.609Z,36.27
2022-08-18T19:57:43.565Z,36.25
2022-08-18T20:02:50.991Z,36.31
2022-08-18T20:07:57.750Z,36.35
2022-08-18T20:13:05.426Z,36.27
2022-08-18T20:18:12.165Z,37.03
2022-08-18T20:23:19.084Z,37.88
2022-08-18T20:28:26.475Z,38.60
2022-08-18T20:33:33.530Z,38.98
2022-08-18T20:38:40.669Z,39.17
2022-08-18T20:43:47.522Z,39.28
2022-08-18T20:48:55.001Z,39.25
2022-08-18T20:54:01.914Z,39.09
2022-08-18T20:59:09.171Z,38.90
2022-08-18T21:04:16.116Z,38.87
2022-08-18T21:09:22.910Z,39.03
2022-08-18T21:14:30.233Z,39.22
2022-08-18T21:19:37.602Z,39.44
2022-08-18T21:24:45.668Z,39.59
2022-08-18T21:34:58.735Z,39.86
2022-08-18T21:40:07.201Z,39.96
2022-08-18T21:45:12.717Z,40.07
2022-08-18T21:50:20.440Z,40.09
2022-08-18T21:55:27.167Z,39.99
2022-08-18T22:00:34.113Z,39.87
2022-08-18T22:05:57.985Z,39.84
2022-08-18T22:10:48.884Z,39.84
2022-08-18T22:15:55.727Z,39.87
2022-08-18T22:21:02.535Z,39.97
2022-08-18T22:26:09.833Z,40.11
2022-08-18T22:31:20.578Z,40.14
2022-08-18T22:36:24.096Z,40.22
2022-08-18T22:41:31.013Z,40.39
2022-08-18T22:46:38.750Z,40.46
2022-08-18T22:51:45.481Z,40.43
2022-08-18T22:56:56.709Z,40.38
2022-08-18T23:01:59.253Z,40.29
2022-08-18T23:07:06.656Z,40.17
2022-08-18T23:12:13.463Z,40.15
2022-08-18T23:17:20.781Z,40.10
2022-08-18T23:22:28.078Z,39.99
2022-08-18T23:27:34.853Z,39.92
2022-08-18T23:32:42.143Z,39.93
2022-08-18T23:37:48.957Z,39.94
2022-08-18T23:42:56.287Z,39.93
2022-08-18T23:48:03.623Z,39.92
2022-08-18T23:53:10.403Z,39.95
2022-08-18T23:58:21.366Z,39.89
